Time;durP1;ratioP1;P1;durP2;ratioP2;P2;SDS_P1;SDS_P2;PMS_P1;PMS_P2;Temp;Humidity;BMP_temperature;BMP_pressure;BME280_temperature;BME280_humidity;BME280_pressure;Samples;Min_cycle;Max_cycle;Signal;HPM_P1;HPM_P2
2022/05/17 00:02:35;;;;;;;1.52;1.13;;;;;;;7.61;71.69;95526.56;6261635;28;20041;-69
2022/05/17 00:05:38;;;;;;;0.98;0.77;;;;;;;7.70;71.62;95525.03;6287668;28;20049;-68
2022/05/17 00:08:43;;;;;;;0.77;0.77;;;;;;;7.88;70.69;95531.50;6272124;28;20045;-69
2022/05/17 00:11:48;;;;;;;0.63;0.60;;;;;;;7.92;70.39;95536.50;6283315;28;22635;-70
2022/05/17 00:14:53;;;;;;;0.70;0.70;;;;;;;7.79;70.83;95536.59;6287939;28;20460;-70
2022/05/17 00:17:58;;;;;;;1.50;0.70;;;;;;;7.76;71.04;95542.06;6280630;28;20062;-70
2022/05/17 00:21:00;;;;;;;1.15;0.60;;;;;;;7.81;70.79;95534.66;6281286;28;20033;-69
2022/05/17 00:24:02;;;;;;;1.17;1.08;;;;;;;7.81;70.47;95550.38;6271654;28;20041;-69
2022/05/17 00:27:04;;;;;;;1.15;0.77;;;;;;;7.83;70.19;95543.25;6279464;28;20426;-69
2022/05/17 00:30:07;;;;;;;0.82;0.60;;;;;;;7.50;71.56;95547.47;6278023;28;20053;-70
2022/05/17 00:33:10;;;;;;;0.90;0.82;;;;;;;7.55;71.47;95554.94;6282541;28;20457;-69
2022/05/17 00:36:14;;;;;;;0.60;0.60;;;;;;;7.54;71.49;95554.13;6272947;28;20037;-69
2022/05/17 00:39:24;;;;;;;0.98;0.80;;;;;;;7.62;71.47;95549.16;6279925;28;20051;-70
2022/05/17 00:42:27;;;;;;;;;;;;;;;7.75;71.32;95543.00;6275451;28;20545;-69
2022/05/17 00:45:34;;;;;;;1.20;1.00;;;;;;;7.63;71.82;95548.19;6280470;28;19916;-70
2022/05/17 00:48:38;;;;;;;2.03;0.70;;;;;;;7.65;72.39;95551.53;6274214;28;20064;-69
2022/05/17 00:51:41;;;;;;;1.00;0.90;;;;;;;7.83;71.97;95564.22;6267199;28;20514;-69
2022/05/17 00:54:46;;;;;;;0.95;0.77;;;;;;;7.87;71.97;95545.53;6285139;28;20848;-69
2022/05/17 00:58:09;;;;;;;1.17;1.00;;;;;;;8.01;71.73;95557.59;6281772;28;20422;-69
2022/05/17 01:01:20;;;;;;;0.98;0.98;;;;;;;8.17;70.92;95552.00;6284707;28;20040;-68
2022/05/17 01:04:28;;;;;;;1.40;1.10;;;;;;;8.13;71.34;95557.63;6269989;28;20053;-69
2022/05/17 01:07:38;;;;;;;1.10;1.00;;;;;;;8.15;71.69;95545.22;6289060;28;20042;-69
2022/05/17 01:10:44;;;;;;;1.40;1.13;;;;;;;8.27;70.95;95544.31;6277565;28;20045;-69
2022/05/17 01:17:08;;;;;;;0.93;0.90;;;;;;;8.33;70.93;95543.81;6277490;28;19921;-69
2022/05/17 01:20:13;;;;;;;1.65;1.13;;;;;;;8.41;70.95;95549.34;6270282;28;20442;-69
2022/05/17 01:23:19;;;;;;;1.08;1.00;;;;;;;8.46;70.99;95549.78;6269666;28;20040;-70
2022/05/17 01:26:31;;;;;;;1.02;1.02;;;;;;;8.48;71.00;95563.63;6277888;28;20044;-70
2022/05/17 01:29:44;;;;;;;1.20;1.02;;;;;;;8.56;70.82;95562.22;6271145;28;20032;-70
2022/05/17 01:32:52;;;;;;;1.70;1.10;;;;;;;8.52;71.12;95557.22;6289284;28;20037;-69
2022/05/17 01:35:56;;;;;;;1.80;1.40;;;;;;;8.62;70.99;95553.88;6291084;28;20028;-70
2022/05/17 01:38:58;;;;;;;1.65;1.05;;;;;;;8.85;70.40;95567.78;6277696;28;20048;-70
2022/05/17 01:42:02;;;;;;;1.17;1.08;;;;;;;8.86;70.43;95579.94;6271202;28;20410;-70
2022/05/17 01:45:06;;;;;;;1.77;1.27;;;;;;;8.85;70.74;95588.78;6270388;28;20052;-71
2022/05/17 01:48:07;;;;;;;1.33;1.20;;;;;;;9.03;69.87;95596.97;6270311;28;20056;-69
2022/05/17 01:51:11;;;;;;;0.80;0.80;;;;;;;9.01;70.39;95593.66;6284322;28;20510;-70
2022/05/17 01:54:15;;;;;;;1.70;1.60;;;;;;;9.06;70.03;95600.22;6275060;28;20056;-69
2022/05/17 01:57:22;;;;;;;1.60;1.50;;;;;;;9.10;70.40;95601.63;6280964;28;20040;-69
2022/05/17 02:00:26;;;;;;;2.08;1.30;;;;;;;9.03;70.56;95602.22;6271645;28;20040;-69
2022/05/17 02:03:30;;;;;;;1.02;0.93;;;;;;;9.20;70.19;95594.69;6274830;28;20056;-70
2022/05/17 02:06:32;;;;;;;0.90;0.90;;;;;;;9.30;69.85;95602.66;6287810;28;20131;-70
2022/05/17 02:09:33;;;;;;;1.27;0.80;;;;;;;9.38;70.31;95600.25;6291236;28;20090;-69
2022/05/17 02:12:37;;;;;;;1.98;0.90;;;;;;;9.50;69.44;95600.22;6276043;28;20417;-70
2022/05/17 02:15:38;;;;;;;1.10;0.80;;;;;;;9.54;69.53;95609.50;6273387;28;20067;-70
2022/05/17 02:18:45;;;;;;;2.35;1.15;;;;;;;9.59;69.56;95605.56;6248793;28;20041;-70
2022/05/17 02:21:49;;;;;;;2.63;1.40;;;;;;;9.69;69.31;95616.16;6281779;28;20076;-70
2022/05/17 02:24:51;;;;;;;1.30;1.20;;;;;;;9.80;68.95;95610.88;6274293;28;20052;-70
2022/05/17 02:27:57;;;;;;;1.20;1.10;;;;;;;9.96;68.82;95617.47;6275753;28;20422;-69
2022/05/17 02:31:05;;;;;;;3.60;1.23;;;;;;;9.96;68.78;95612.22;6275747;28;20438;-69
2022/05/17 02:34:09;;;;;;;3.17;1.30;;;;;;;10.13;68.27;95619.53;6275323;28;20044;-70
2022/05/17 02:37:17;;;;;;;0.73;0.60;;;;;;;10.29;67.21;95613.88;6284329;28;21474;-70
2022/05/17 02:40:19;;;;;;;1.13;0.88;;;;;;;10.47;66.41;95619.38;6275559;28;20079;-70
2022/05/17 02:43:23;;;;;;;1.30;0.90;;;;;;;10.49;66.78;95615.66;6250110;28;20421;-69
2022/05/17 02:46:30;;;;;;;1.20;0.93;;;;;;;10.77;66.12;95614.16;6267873;28;20506;-69
2022/05/17 02:49:35;;;;;;;1.30;0.80;;;;;;;10.89;65.56;95621.97;6276118;28;20422;-70
2022/05/17 02:52:39;;;;;;;1.10;0.98;;;;;;;10.91;65.67;95620.88;6282951;28;20037;-69
2022/05/17 02:55:40;;;;;;;5.55;2.40;;;;;;;10.95;65.36;95624.06;6272970;28;20064;-70
2022/05/17 02:58:44;;;;;;;4.50;1.73;;;;;;;10.96;65.31;95628.38;6283771;28;20041;-70
2022/05/17 03:01:53;;;;;;;2.20;1.02;;;;;;;10.82;65.04;95636.63;6269547;28;20127;-70
2022/05/17 03:04:54;;;;;;;0.95;0.80;;;;;;;10.63;65.80;95632.09;6271681;28;20040;-70
2022/05/17 03:08:00;;;;;;;1.90;0.80;;;;;;;10.52;66.28;95631.19;6275485;28;20128;-70
2022/05/17 03:11:05;;;;;;;2.35;2.03;;;;;;;10.50;66.34;95629.63;6258207;28;20083;-70
2022/05/17 03:14:10;;;;;;;2.95;1.10;;;;;;;10.54;66.40;95617.91;6261992;28;20519;-70
2022/05/17 03:17:14;;;;;;;1.13;0.90;;;;;;;10.60;66.21;95632.34;6276316;28;20060;-71
2022/05/17 03:20:19;;;;;;;1.00;0.90;;;;;;;10.78;65.48;95638.66;6270456;28;20056;-70
2022/05/17 03:23:23;;;;;;;1.05;0.70;;;;;;;10.94;63.95;95635.56;6276479;28;20490;-70
2022/05/17 03:26:30;;;;;;;1.50;1.00;;;;;;;10.90;64.33;95634.13;6282768;28;20076;-70
2022/05/17 03:29:34;;;;;;;1.20;0.70;;;;;;;10.93;64.57;95640.00;6278086;28;20095;-69
2022/05/17 03:32:39;;;;;;;1.33;0.93;;;;;;;11.05;63.95;95637.28;6287662;28;20045;-69
2022/05/17 03:35:40;;;;;;;1.65;0.88;;;;;;;11.35;63.29;95639.88;6284562;28;20041;-68
2022/05/17 03:38:41;;;;;;;0.80;0.80;;;;;;;11.40;63.09;95632.38;6286239;28;20044;-69
2022/05/17 03:41:43;;;;;;;1.25;1.00;;;;;;;11.27;63.34;95636.25;6261491;28;20064;-70
2022/05/17 03:44:46;;;;;;;1.25;1.00;;;;;;;11.10;63.90;95646.44;6271896;28;20119;-68
2022/05/17 03:47:50;;;;;;;1.67;1.10;;;;;;;11.12;63.90;95635.75;6281719;28;20032;-64
2022/05/17 03:50:52;;;;;;;1.15;1.05;;;;;;;11.12;63.73;95626.06;6287774;28;20047;-64
2022/05/17 03:53:53;;;;;;;1.83;0.90;;;;;;;11.28;63.74;95630.00;6277041;28;20103;-63
2022/05/17 03:56:55;;;;;;;1.52;0.93;;;;;;;11.64;62.56;95639.09;6292387;28;20045;-64
2022/05/17 03:59:57;;;;;;;1.48;1.05;;;;;;;11.78;61.75;95641.34;6295420;28;20051;-64
2022/05/17 04:02:58;;;;;;;0.88;0.88;;;;;;;11.94;61.74;95640.81;6296652;28;20052;-63
2022/05/17 04:06:00;;;;;;;2.42;1.05;;;;;;;12.47;59.81;95643.00;6293504;28;20054;-64
2022/05/17 04:09:05;;;;;;;0.80;0.80;;;;;;;12.72;59.17;95632.84;6295877;28;20187;-64
2022/05/17 04:12:07;;;;;;;0.80;0.70;;;;;;;13.42;56.66;95647.34;6296336;28;20054;-63
2022/05/17 04:15:21;;;;;;;1.25;0.68;;;;;;;13.68;56.28;95644.00;6296500;28;20045;-63
2022/05/17 04:18:28;;;;;;;1.08;0.80;;;;;;;13.99;55.03;95646.28;6273766;28;20135;-64
2022/05/17 04:21:34;;;;;;;1.10;0.68;;;;;;;14.36;54.45;95644.31;6271786;28;20430;-63
2022/05/17 04:24:35;;;;;;;1.75;1.10;;;;;;;14.32;53.27;95644.75;6271692;28;20056;-64
2022/05/17 04:27:37;;;;;;;1.17;0.70;;;;;;;14.49;53.12;95643.06;6271412;28;20049;-63
2022/05/17 04:30:44;;;;;;;1.08;0.98;;;;;;;15.07;50.84;95641.69;6272237;28;20045;-63
2022/05/17 04:33:48;;;;;;;1.05;0.98;;;;;;;16.56;47.65;95645.38;6283029;28;20033;-63
2022/05/17 04:36:50;;;;;;;1.63;0.82;;;;;;;17.15;46.88;95640.69;6271335;28;20132;-63
2022/05/17 04:39:51;;;;;;;1.15;0.70;;;;;;;18.76;44.54;95654.31;6271021;28;20075;-64
2022/05/17 04:42:56;;;;;;;0.82;0.68;;;;;;;22.37;37.51;95663.78;6271572;28;20158;-64
2022/05/17 04:46:00;;;;;;;0.75;0.55;;;;;;;22.29;35.51;95661.28;6271306;28;20049;-64
2022/05/17 04:49:02;;;;;;;2.05;0.60;;;;;;;21.02;36.56;95665.09;6271554;28;20056;-64
2022/05/17 04:52:06;;;;;;;0.50;0.40;;;;;;;22.91;34.86;95666.56;6272128;28;20613;-64
2022/05/17 04:55:11;;;;;;;0.75;0.40;;;;;;;23.60;33.85;95671.44;6271628;28;20045;-64
2022/05/17 04:58:15;;;;;;;1.15;0.43;;;;;;;23.91;33.40;95675.31;6271082;28;20045;-64
2022/05/17 05:01:21;;;;;;;0.60;0.30;;;;;;;26.46;27.81;95671.16;6271319;28;20068;-64
2022/05/17 05:04:29;;;;;;;0.50;0.25;;;;;;;26.90;27.25;95669.13;6283299;28;20057;-63
2022/05/17 05:07:37;;;;;;;1.15;0.40;;;;;;;27.89;25.85;95680.97;6288391;28;20045;-64
2022/05/17 05:10:39;;;;;;;1.42;0.45;;;;;;;29.68;23.71;95665.28;6270578;28;20430;-64
2022/05/17 05:13:40;;;;;;;1.85;0.30;;;;;;;30.49;22.76;95672.00;6294761;28;20522;-65
2022/05/17 05:16:43;;;;;;;0.88;0.50;;;;;;;29.62;22.57;95668.16;6295107;28;20126;-65
2022/05/17 05:19:52;;;;;;;0.75;0.45;;;;;;;28.75;23.61;95677.53;6295806;28;20044;-64
2022/05/17 05:22:56;;;;;;;1.38;0.45;;;;;;;28.51;23.03;95656.00;6295591;28;20571;-64
2022/05/17 05:26:01;;;;;;;0.45;0.35;;;;;;;28.02;24.13;95658.22;6275457;28;20044;-63
2022/05/17 05:29:06;;;;;;;0.30;0.30;;;;;;;27.74;24.33;95669.75;6270882;28;20418;-64
2022/05/17 05:32:08;;;;;;;1.00;0.40;;;;;;;25.32;27.50;95663.53;6277103;28;20048;-64
2022/05/17 05:35:20;;;;;;;0.80;0.50;;;;;;;23.38;29.96;95667.34;6295506;28;20502;-64
2022/05/17 05:38:21;;;;;;;0.55;0.40;;;;;;;21.93;32.43;95662.38;6295554;28;20041;-64
2022/05/17 05:41:25;;;;;;;0.85;0.65;;;;;;;20.89;34.06;95662.34;6288872;28;20073;-65
2022/05/17 05:44:28;;;;;;;1.98;0.70;;;;;;;19.83;36.68;95670.03;6270155;28;20502;-63
2022/05/17 05:47:32;;;;;;;1.00;0.80;;;;;;;18.52;39.28;95663.31;6270138;28;20048;-63
2022/05/17 05:50:38;;;;;;;1.67;1.00;;;;;;;17.59;42.27;95658.00;6270122;28;20044;-63
2022/05/17 05:53:42;;;;;;;3.53;1.35;;;;;;;17.11;43.91;95659.81;6270089;28;20051;-74
2022/05/17 05:56:50;;;;;;;1.52;1.42;;;;;;;17.00;44.44;95659.16;6277045;28;20510;-63
2022/05/17 05:59:54;;;;;;;1.42;1.30;;;;;;;17.14;44.35;95662.97;6282924;28;20041;-64
2022/05/17 06:02:56;;;;;;;2.33;1.25;;;;;;;17.30;43.72;95656.78;6278058;28;20051;-64
2022/05/17 06:06:03;;;;;;;3.28;1.42;;;;;;;17.44;43.33;95649.94;6276369;28;20506;-63
2022/05/17 06:09:07;;;;;;;1.90;0.80;;;;;;;17.21;43.36;95655.97;6268583;28;20080;-64
2022/05/17 06:12:09;;;;;;;1.63;1.00;;;;;;;17.14;43.47;95654.16;6268679;28;20525;-63
2022/05/17 06:15:16;;;;;;;1.83;1.35;;;;;;;17.36;42.61;95648.13;6290690;28;20040;-64
2022/05/17 06:18:19;;;;;;;1.20;0.90;;;;;;;17.51;41.60;95654.38;6282888;28;20059;-64
2022/05/17 06:21:23;;;;;;;;;;;;;;;17.72;41.18;95652.97;6285474;28;20067;-64
2022/05/17 06:24:24;;;;;;;1.10;0.90;;;;;;;17.28;42.22;95651.63;6283930;28;20025;-65
2022/05/17 06:27:26;;;;;;;1.35;0.98;;;;;;;17.24;42.58;95662.78;6280568;28;20033;-64
2022/05/17 06:30:29;;;;;;;0.93;0.82;;;;;;;17.25;42.37;95661.78;6285138;28;20045;-64
2022/05/17 06:33:31;;;;;;;1.02;0.93;;;;;;;17.49;41.77;95664.38;6279306;28;20048;-68
2022/05/17 06:36:35;;;;;;;0.60;0.60;;;;;;;22.02;33.49;95662.19;6279322;28;20045;-64
2022/05/17 06:39:38;;;;;;;1.25;0.82;;;;;;;25.59;28.21;95665.94;6280226;28;20040;-65
2022/05/17 06:42:42;;;;;;;0.57;0.50;;;;;;;29.29;23.83;95661.69;6273690;28;20045;-70
2022/05/17 06:45:43;;;;;;;1.05;0.50;;;;;;;30.81;20.75;95678.38;6279025;28;20037;-65
2022/05/17 06:48:48;;;;;;;2.80;0.50;;;;;;;32.27;19.00;95677.25;6279703;28;20430;-65
2022/05/17 06:51:52;;;;;;;0.85;0.50;;;;;;;29.62;21.06;95654.59;6268948;28;20045;-64
2022/05/17 06:54:55;;;;;;;1.55;0.45;;;;;;;26.98;24.12;95658.00;6268446;28;20457;-62
2022/05/17 06:57:59;;;;;;;1.15;0.35;;;;;;;25.01;26.66;95662.50;6272187;28;20040;-65
2022/05/17 07:01:05;;;;;;;0.55;0.40;;;;;;;23.83;28.00;95649.50;6276053;28;20053;-64
2022/05/17 07:04:09;;;;;;;2.03;0.80;;;;;;;23.05;28.97;95661.00;6274127;28;20041;-73
2022/05/17 07:07:11;;;;;;;1.10;0.57;;;;;;;22.44;29.79;95658.44;6284000;28;20538;-65
2022/05/17 07:13:34;;;;;;;3.45;1.83;;;;;;;21.42;30.16;95659.22;6279831;28;20044;-64
2022/05/17 07:16:36;;;;;;;5.05;1.90;;;;;;;21.12;30.72;95626.47;6291332;28;20036;-64
2022/05/17 07:19:37;;;;;;;1.70;1.27;;;;;;;21.51;31.32;95642.84;6318044;28;20044;-65
2022/05/17 07:22:43;;;;;;;0.77;0.70;;;;;;;22.74;30.06;95658.91;6282066;28;20453;-66
2022/05/17 07:25:47;;;;;;;1.23;0.80;;;;;;;22.76;29.86;95677.44;6270865;28;20045;-64
2022/05/17 07:28:53;;;;;;;1.65;1.00;;;;;;;20.77;32.94;95666.53;6283693;28;20048;-63
2022/05/17 07:31:54;;;;;;;1.48;1.00;;;;;;;18.95;36.58;95665.47;6295838;28;20044;-63
2022/05/17 07:34:56;;;;;;;0.85;0.85;;;;;;;17.74;39.30;95657.09;6283531;28;20052;-64
2022/05/17 07:38:01;;;;;;;0.73;0.73;;;;;;;16.67;42.84;95662.81;6280850;28;20045;-63
2022/05/17 07:41:05;;;;;;;1.95;1.10;;;;;;;16.53;45.59;95654.56;6296584;28;20060;-64
2022/05/17 07:44:09;;;;;;;1.42;1.23;;;;;;;21.39;37.28;95665.81;6296291;28;20398;-64
2022/05/17 07:47:10;;;;;;;2.40;1.20;;;;;;;26.48;29.88;95664.50;6272492;28;20055;-65
2022/05/17 07:50:12;;;;;;;1.85;0.80;;;;;;;30.84;25.47;95672.44;6271049;28;20418;-64
2022/05/17 07:53:19;;;;;;;0.98;0.50;;;;;;;33.70;21.29;95683.00;6276567;28;20048;-65
2022/05/17 07:56:21;;;;;;;0.65;0.40;;;;;;;35.50;18.15;95681.06;6282685;28;20053;-65
2022/05/17 07:59:27;;;;;;;0.55;0.47;;;;;;;36.98;15.77;95676.69;6285363;28;20045;-65
2022/05/17 08:02:30;;;;;;;0.25;0.25;;;;;;;37.34;15.33;95651.47;6276113;28;20052;-65
2022/05/17 08:05:34;;;;;;;0.38;0.20;;;;;;;38.38;13.81;95661.09;6253848;28;20079;-65
2022/05/17 08:08:39;;;;;;;0.13;0.13;;;;;;;39.04;13.01;95652.56;6282496;28;20058;-65
2022/05/17 08:11:51;;;;;;;0.90;0.30;;;;;;;38.52;12.45;95663.84;6274309;28;20045;-65
2022/05/17 08:14:55;;;;;;;0.10;0.10;;;;;;;37.92;13.01;95648.25;6278231;28;20487;-65
2022/05/17 08:18:01;;;;;;;0.47;0.10;;;;;;;38.53;12.60;95648.16;6274108;28;20041;-65
2022/05/17 08:21:03;;;;;;;0.08;0.03;;;;;;;39.11;12.08;95652.13;6288703;28;20052;-65
2022/05/17 08:24:07;;;;;;;0.15;0.15;;;;;;;39.41;11.54;95648.66;6270216;28;20052;-65
2022/05/17 08:27:34;;;;;;;0.20;0.10;;;;;;;37.70;13.02;95648.13;6270376;28;20041;-65
2022/05/17 08:30:38;;;;;;;0.35;0.20;;;;;;;37.53;13.14;95660.47;6284234;28;20041;-65
2022/05/17 08:33:42;;;;;;;0.10;0.10;;;;;;;36.54;12.63;95655.91;6281010;28;20063;-64
2022/05/17 08:36:46;;;;;;;0.50;0.40;;;;;;;36.24;13.34;95656.28;6273290;28;20041;-65
2022/05/17 08:39:49;;;;;;;0.35;0.30;;;;;;;36.37;13.75;95637.19;6279172;28;20059;-65
2022/05/17 08:43:16;;;;;;;0.38;0.20;;;;;;;36.58;13.29;95650.69;6277215;28;20044;-64
2022/05/17 08:46:26;;;;;;;0.20;0.20;;;;;;;35.18;14.34;95635.94;6286501;28;20060;-65
2022/05/17 08:49:55;;;;;;;0.52;0.30;;;;;;;35.61;13.59;95638.84;6277905;28;20518;-65
2022/05/17 08:53:00;;;;;;;0.20;0.10;;;;;;;34.41;13.92;95636.38;6274137;28;20045;-63
2022/05/17 08:56:03;;;;;;;0.47;0.30;;;;;;;32.49;15.91;95637.09;6288280;28;20588;-64
2022/05/17 08:59:05;;;;;;;;;;;;;;;34.08;14.71;95635.16;6279961;28;20068;-65
2022/05/17 09:02:20;;;;;;;0.55;0.10;;;;;;;35.37;14.09;95629.78;6284048;28;19928;-64
2022/05/17 09:05:39;;;;;;;2.78;0.55;;;;;;;37.43;12.60;95635.13;6274803;28;20049;-65
2022/05/17 09:08:43;;;;;;;0.40;0.10;;;;;;;38.93;11.49;95621.75;6284851;28;20107;-65
2022/05/17 09:11:54;;;;;;;0.20;0.10;;;;;;;40.33;10.60;95626.13;6260308;28;20400;-65
2022/05/17 09:15:00;;;;;;;0.50;0.20;;;;;;;37.04;12.80;95608.91;6272986;28;20040;-64
2022/05/17 09:18:10;;;;;;;0.77;0.10;;;;;;;32.63;15.31;95594.63;6275835;28;20478;-65
2022/05/17 09:21:26;;;;;;;0.60;0.35;;;;;;;29.52;17.94;95607.28;6273492;28;20052;-64
2022/05/17 09:24:40;;;;;;;0.20;0.20;;;;;;;27.14;20.63;95600.59;6280978;28;20040;-64
2022/05/17 09:27:49;;;;;;;0.28;0.17;;;;;;;25.46;22.68;95603.09;6286626;28;20049;-64
2022/05/17 09:31:11;;;;;;;1.50;0.60;;;;;;;25.04;24.31;95596.66;6271268;28;20037;-64
2022/05/17 09:34:20;;;;;;;0.90;0.50;;;;;;;25.95;23.94;95606.69;6279397;28;20037;-65
2022/05/17 09:37:21;;;;;;;1.38;0.30;;;;;;;26.96;22.98;95606.09;6276652;28;20037;-64
2022/05/17 09:40:29;;;;;;;0.55;0.30;;;;;;;26.85;22.77;95611.25;6269466;28;20045;-65
2022/05/17 09:43:39;;;;;;;0.63;0.20;;;;;;;25.36;24.34;95624.31;6269353;28;20053;-65
2022/05/17 09:46:48;;;;;;;0.35;0.10;;;;;;;25.65;24.52;95611.22;6276701;28;20040;-64
2022/05/17 09:53:15;;;;;;;0.63;0.30;;;;;;;26.05;23.05;95611.56;6273713;28;20036;-64
2022/05/17 09:56:25;;;;;;;1.13;0.43;;;;;;;26.47;22.75;95632.34;6266425;28;20056;-64
2022/05/17 09:59:29;;;;;;;0.10;0.10;;;;;;;26.34;22.27;95615.31;6269114;28;20041;-64
2022/05/17 10:02:38;;;;;;;0.52;0.45;;;;;;;26.84;22.19;95620.41;6277544;28;20044;-64
2022/05/17 10:05:40;;;;;;;0.17;0.17;;;;;;;27.47;21.60;95601.91;6271295;28;20052;-65
2022/05/17 10:08:58;;;;;;;1.80;0.30;;;;;;;27.64;20.98;95613.63;6273617;28;20526;-64
2022/05/17 10:12:27;;;;;;;1.58;0.40;;;;;;;28.28;20.44;95608.19;6276445;28;20087;-65
2022/05/17 10:15:35;;;;;;;1.17;0.25;;;;;;;28.46;19.97;95603.69;6288465;28;20422;-65
2022/05/17 10:18:58;;;;;;;1.65;0.20;;;;;;;28.67;19.80;95600.25;6303315;28;20121;-65
2022/05/17 10:22:13;;;;;;;0.17;0.10;;;;;;;29.50;18.78;95609.44;6291640;28;20041;-64
2022/05/17 10:25:22;;;;;;;0.45;0.20;;;;;;;29.02;18.59;95597.31;6276308;28;20045;-65
2022/05/17 10:28:47;;;;;;;0.32;0.20;;;;;;;27.91;19.99;95602.31;6279903;28;20071;-64
2022/05/17 10:32:19;;;;;;;1.63;0.38;;;;;;;28.45;19.79;95596.59;6292730;28;20044;-65
2022/05/17 10:35:39;;;;;;;0.43;0.30;;;;;;;28.43;19.85;95594.16;6275383;28;20598;-64
2022/05/17 10:39:01;;;;;;;0.43;0.25;;;;;;;27.80;19.85;95595.03;6292585;28;20502;-65
2022/05/17 10:42:05;;;;;;;0.10;0.10;;;;;;;26.36;20.66;95580.84;6294273;28;20048;-65
2022/05/17 10:45:10;;;;;;;0.30;0.17;;;;;;;25.48;20.83;95587.56;6284556;28;20060;-65
2022/05/17 10:48:48;;;;;;;0.25;0.25;;;;;;;25.01;21.86;95576.41;6281221;28;20044;-64
2022/05/17 10:51:59;;;;;;;0.30;0.30;;;;;;;25.10;22.63;95577.75;6294442;28;20037;-65
2022/05/17 10:55:20;;;;;;;0.30;0.30;;;;;;;25.34;22.51;95580.66;6292772;28;20498;-67
2022/05/17 10:59:13;;;;;;;0.35;0.10;;;;;;;25.25;22.99;95579.28;6293874;28;20044;-64
2022/05/17 11:02:43;;;;;;;1.17;0.32;;;;;;;25.28;22.50;95579.69;6271149;28;20072;-63
2022/05/17 11:06:11;;;;;;;0.40;0.40;;;;;;;24.72;23.28;95585.16;6276551;28;20056;-64
2022/05/17 11:09:40;;;;;;;0.52;0.30;;;;;;;24.60;23.52;95587.72;6273106;28;20099;-68
2022/05/17 11:12:52;;;;;;;1.08;0.43;;;;;;;24.48;23.92;95584.09;6269067;28;20049;-65
2022/05/17 11:16:16;;;;;;;0.35;0.20;;;;;;;23.84;24.60;95584.03;6273805;28;20037;-64
2022/05/17 11:19:27;;;;;;;0.70;0.40;;;;;;;22.58;26.51;95587.72;6292459;28;20131;-64
2022/05/17 11:23:01;;;;;;;0.20;0.20;;;;;;;22.06;27.72;95591.13;6290710;28;20051;-64
2022/05/17 11:26:33;;;;;;;0.35;0.35;;;;;;;21.97;27.76;95587.81;6270520;28;20082;-64
2022/05/17 11:29:40;;;;;;;1.35;0.35;;;;;;;21.52;28.90;95584.78;6279797;28;20041;-63
2022/05/17 11:33:22;;;;;;;0.85;0.32;;;;;;;21.20;31.06;95602.25;6279056;28;20045;-64
2022/05/17 11:36:32;;;;;;;0.28;0.20;;;;;;;19.55;34.95;95600.47;6247500;28;20601;-63
2022/05/17 11:39:41;;;;;;;0.50;0.40;;;;;;;18.43;37.25;95599.63;6278051;28;20048;-64
2022/05/17 11:46:30;;;;;;;2.22;1.05;;;;;;;17.01;41.63;95634.28;6286693;28;20044;-64
2022/05/17 11:49:42;;;;;;;0.50;0.50;;;;;;;16.72;42.73;95649.88;6280959;28;20049;-64
2022/05/17 11:53:08;;;;;;;1.85;0.60;;;;;;;16.60;41.94;95628.16;6283523;28;20052;-64
2022/05/17 11:56:18;;;;;;;1.33;0.90;;;;;;;16.22;42.91;95658.81;6273284;28;20045;-64
2022/05/17 11:59:28;;;;;;;2.25;1.40;;;;;;;15.74;44.72;95661.22;6294438;28;20040;-64
2022/05/17 12:02:53;;;;;;;0.80;0.70;;;;;;;15.46;48.25;95652.63;6297218;28;20052;-64
2022/05/17 12:05:56;;;;;;;1.35;0.98;;;;;;;14.70;51.59;95661.31;6269098;28;20044;-64
2022/05/17 12:08:58;;;;;;;1.75;1.55;;;;;;;14.60;52.02;95656.09;6271083;28;20047;-63
2022/05/17 12:12:30;;;;;;;1.00;1.00;;;;;;;14.89;51.11;95655.81;6280374;28;20044;-64
2022/05/17 12:15:36;;;;;;;1.27;0.80;;;;;;;15.24;49.14;95638.94;6293012;28;20044;-64
2022/05/17 12:19:03;;;;;;;0.88;0.88;;;;;;;16.21;46.47;95650.03;6283965;28;20033;-63
2022/05/17 12:22:10;;;;;;;;;;;;;;;16.68;44.30;95645.91;6273875;28;20102;-64
2022/05/17 12:25:38;;;;;;;0.93;0.50;;;;;;;16.88;43.12;95643.75;6271900;28;19920;-64
2022/05/17 12:28:51;;;;;;;1.52;1.25;;;;;;;17.72;41.26;95637.00;6244556;28;20461;-63
2022/05/17 12:31:59;;;;;;;0.90;0.50;;;;;;;18.43;39.19;95658.22;6282794;28;20028;-64
2022/05/17 12:35:05;;;;;;;0.82;0.50;;;;;;;18.19;38.43;95652.06;6287858;28;20048;-64
2022/05/17 12:43:02;;;;;;;0.73;0.73;;;;;;;17.79;39.16;95645.97;6274558;28;20502;-63
2022/05/17 12:44:56;;;;;;;1.17;0.70;;;;;;;17.80;38.66;95655.59;6270439;28;20794;-64
2022/05/17 12:48:16;;;;;;;1.00;0.50;;;;;;;17.76;37.96;95658.78;6287069;28;20039;-64
2022/05/17 12:51:21;;;;;;;0.63;0.50;;;;;;;17.59;38.46;95652.69;6283453;28;20498;-63
2022/05/17 12:54:30;;;;;;;0.60;0.60;;;;;;;17.53;38.84;95666.69;6273339;28;20449;-64
2022/05/17 12:57:35;;;;;;;1.42;0.60;;;;;;;17.50;38.65;95671.34;6286877;28;20054;-64
2022/05/17 13:00:37;;;;;;;0.40;0.40;;;;;;;17.53;38.81;95656.03;6269544;28;20442;-64
2022/05/17 13:03:46;;;;;;;2.42;0.68;;;;;;;17.36;39.56;95672.06;6274442;28;20048;-63
2022/05/17 13:06:50;;;;;;;0.75;0.60;;;;;;;17.17;40.12;95677.75;6278603;28;20041;-64
2022/05/17 13:09:54;;;;;;;;;;;;;;;17.21;40.05;95681.72;6277479;28;20473;-63
2022/05/17 13:13:11;;;;;;;0.52;0.52;;;;;;;16.90;41.49;95687.75;6270073;28;19920;-64
2022/05/17 13:16:25;;;;;;;0.50;0.50;;;;;;;16.78;42.30;95681.13;6267111;28;20413;-64
2022/05/17 13:19:27;;;;;;;1.63;0.68;;;;;;;16.79;42.78;95694.25;6270213;28;20049;-64
2022/05/17 13:22:28;;;;;;;0.98;0.60;;;;;;;16.60;43.42;95679.44;6256438;28;20056;-63
2022/05/17 13:25:44;;;;;;;0.75;0.50;;;;;;;16.77;43.06;95690.91;6270144;28;20056;-64
2022/05/17 13:28:45;;;;;;;0.75;0.68;;;;;;;16.74;43.39;95669.13;6273907;28;20050;-63
2022/05/17 13:31:55;;;;;;;0.43;0.43;;;;;;;16.56;43.15;95672.81;6295249;28;20494;-64
2022/05/17 13:35:08;;;;;;;0.43;0.43;;;;;;;16.39;42.57;95677.28;6294237;28;20052;-64
2022/05/17 13:38:11;;;;;;;0.40;0.40;;;;;;;16.15;43.09;95675.41;6293122;28;20044;-64
2022/05/17 13:41:22;;;;;;;0.80;0.60;;;;;;;15.77;44.25;95686.56;6294229;28;20040;-64
2022/05/17 13:44:34;;;;;;;2.05;0.60;;;;;;;15.65;44.06;95692.16;6273801;28;20416;-63
2022/05/17 13:47:44;;;;;;;1.17;0.95;;;;;;;15.36;44.71;95678.41;6272927;28;20043;-64
2022/05/17 13:50:53;;;;;;;0.88;0.85;;;;;;;15.30;45.19;95689.66;6278158;28;20513;-63
2022/05/17 13:54:11;;;;;;;2.25;1.00;;;;;;;15.35;45.27;95695.31;6284442;28;20052;-67
2022/05/17 13:57:30;;;;;;;1.20;1.08;;;;;;;15.15;45.67;95682.28;6287985;28;20485;-64
2022/05/17 14:00:35;;;;;;;1.70;0.90;;;;;;;15.43;44.41;95684.78;6281635;28;20051;-65
2022/05/17 14:03:41;;;;;;;0.50;0.50;;;;;;;15.58;42.79;95682.34;6284510;28;20052;-69
2022/05/17 14:06:51;;;;;;;0.98;0.50;;;;;;;15.88;41.86;95673.88;6294494;28;20044;-65
2022/05/17 14:13:40;;;;;;;1.45;0.50;;;;;;;16.04;40.66;95694.28;6269747;28;20063;-65
2022/05/17 14:16:44;;;;;;;0.73;0.50;;;;;;;15.92;40.64;95679.66;6293131;28;20040;-65
2022/05/17 14:19:52;;;;;;;0.57;0.57;;;;;;;15.98;40.67;95681.66;6293388;28;20048;-64
2022/05/17 14:23:01;;;;;;;0.70;0.70;;;;;;;15.83;41.18;95683.28;6294027;28;20048;-70
2022/05/17 14:26:05;;;;;;;1.20;0.60;;;;;;;15.87;41.20;95695.22;6289811;28;20048;-67
2022/05/17 14:29:09;;;;;;;0.80;0.70;;;;;;;15.56;41.59;95692.25;6278255;28;20056;-68
2022/05/17 14:32:13;;;;;;;1.98;0.65;;;;;;;15.14;42.38;95688.56;6279199;28;20037;-66
2022/05/17 14:35:19;;;;;;;1.75;1.20;;;;;;;14.95;43.14;95692.28;6275482;28;20530;-66
2022/05/17 14:38:24;;;;;;;2.05;1.20;;;;;;;14.80;43.30;95692.00;6281147;28;20044;-65
2022/05/17 14:41:30;;;;;;;2.45;1.33;;;;;;;15.00;42.30;95712.97;6301470;28;20169;-66
2022/05/17 14:44:34;;;;;;;0.98;0.80;;;;;;;14.99;41.44;95712.16;6275518;28;20063;-65
2022/05/17 14:47:41;;;;;;;0.95;0.75;;;;;;;14.92;41.54;95719.06;6267232;28;20510;-66
2022/05/17 14:50:46;;;;;;;1.85;1.13;;;;;;;14.87;41.87;95721.34;6274918;28;20490;-64
2022/05/17 14:53:54;;;;;;;0.75;0.70;;;;;;;14.70;42.51;95720.38;6276289;28;20072;-65
2022/05/17 14:56:58;;;;;;;0.80;0.50;;;;;;;14.74;42.34;95718.25;6269923;28;20045;-66
2022/05/17 15:00:03;;;;;;;1.10;0.50;;;;;;;14.67;42.76;95725.16;6270231;28;20052;-66
2022/05/17 15:03:20;;;;;;;2.20;0.55;;;;;;;14.56;43.36;95702.41;6285262;28;20078;-65
2022/05/17 15:06:25;;;;;;;0.93;0.57;;;;;;;14.17;44.59;95729.13;6269983;28;20417;-66
2022/05/17 15:09:32;;;;;;;0.77;0.60;;;;;;;13.91;45.96;95734.28;6286472;28;20045;-65